Time;durP1;ratioP1;P1;durP2;ratioP2;P2;SDS_P1;SDS_P2;PMS_P1;PMS_P2;Temp;Humidity;BMP_temperature;BMP_pressure;BME280_temperature;BME280_humidity;BME280_pressure;Samples;Min_cycle;Max_cycle;Signal;HPM_P1;HPM_P2
2022/05/05 00:01:24;;;;;;;5.22;3.97;;;;;;;-140.79;100.00;63287.88;5060904;28;20037;-50
2022/05/05 00:03:49;;;;;;;5.45;4.18;;;;;;;-140.79;100.00;63287.88;5064092;28;20045;-50
2022/05/05 00:06:15;;;;;;;6.53;4.20;;;;;;;-140.79;100.00;63287.88;5062963;28;20023;-49
2022/05/05 00:08:40;;;;;;;5.82;3.88;;;;;;;-140.79;100.00;63287.88;5062340;28;20012;-49
2022/05/05 00:16:33;;;;;;;5.53;3.92;;;;;;;-140.79;100.00;63287.88;5061108;28;20417;-49
2022/05/05 00:18:59;;;;;;;5.47;3.65;;;;;;;-140.79;100.00;63287.88;5065708;28;20511;-49
2022/05/05 00:21:24;;;;;;;5.40;3.90;;;;;;;-140.79;100.00;63287.88;5065182;28;20028;-49
2022/05/05 00:23:50;;;;;;;5.80;3.58;;;;;;;-140.79;100.00;63287.88;5060682;28;20103;-48
2022/05/05 00:26:15;;;;;;;6.05;4.00;;;;;;;-140.79;100.00;63287.88;5061763;28;20515;-48
2022/05/05 00:28:41;;;;;;;6.18;3.58;;;;;;;-140.79;100.00;63287.88;5062925;28;20043;-49
2022/05/05 00:31:06;;;;;;;4.72;3.80;;;;;;;-140.79;100.00;63287.88;5063208;28;20031;-49
2022/05/05 00:33:32;;;;;;;5.88;3.80;;;;;;;-140.79;100.00;63287.88;5063293;28;20029;-47
2022/05/05 00:35:57;;;;;;;5.53;3.58;;;;;;;-140.79;100.00;63287.88;5061070;28;20013;-47
2022/05/05 00:38:22;;;;;;;5.50;4.05;;;;;;;-140.79;100.00;63287.88;5062729;28;20020;-50
2022/05/05 00:40:48;;;;;;;5.47;3.63;;;;;;;-140.79;100.00;63287.88;5061515;28;20475;-50
2022/05/05 00:43:13;;;;;;;5.78;3.65;;;;;;;-140.79;100.00;63287.88;5064560;28;20233;-46
2022/05/05 00:45:39;;;;;;;6.65;4.05;;;;;;;-140.79;100.00;63287.88;5061763;28;20024;-49
2022/05/05 00:48:05;;;;;;;5.05;3.45;;;;;;;-140.79;100.00;63287.88;5064586;28;20017;-49
2022/05/05 00:50:32;;;;;;;5.45;3.90;;;;;;;-140.79;100.00;63287.88;5059697;28;20020;-48
2022/05/05 00:52:57;;;;;;;6.22;4.15;;;;;;;-140.79;100.00;63287.88;5061059;28;20040;-49
2022/05/05 00:55:23;;;;;;;5.70;3.72;;;;;;;-140.79;100.00;63287.88;5061360;28;20024;-49
2022/05/05 00:57:48;;;;;;;5.30;3.60;;;;;;;-140.79;100.00;63287.88;5045765;28;20032;-49
2022/05/05 01:00:14;;;;;;;4.90;3.58;;;;;;;-140.79;100.00;63287.88;5060484;28;20024;-49
2022/05/05 01:02:39;;;;;;;4.85;3.33;;;;;;;-140.79;100.00;63287.88;5062753;28;20028;-48
2022/05/05 01:05:05;;;;;;;5.35;3.55;;;;;;;-140.79;100.00;63287.88;5059688;28;20029;-47
2022/05/05 01:07:31;;;;;;;4.72;3.40;;;;;;;-140.79;100.00;63287.88;5026545;28;20157;-49
2022/05/05 01:09:56;;;;;;;5.13;3.10;;;;;;;-140.79;100.00;63287.88;5041148;28;20028;-49
2022/05/05 01:12:23;;;;;;;5.47;3.28;;;;;;;-140.79;100.00;63287.88;5026407;28;20020;-48
2022/05/05 01:14:49;;;;;;;5.00;3.42;;;;;;;-140.79;100.00;63287.88;5062686;28;20612;-49
2022/05/05 01:17:14;;;;;;;4.78;3.25;;;;;;;-140.79;100.00;63287.88;5061568;28;20035;-50
2022/05/05 01:19:40;;;;;;;4.43;3.13;;;;;;;-140.79;100.00;63287.88;5061109;28;20024;-49
2022/05/05 01:22:08;;;;;;;4.97;3.72;;;;;;;-140.79;100.00;63287.88;5062799;28;20538;-50
2022/05/05 01:30:03;;;;;;;5.20;3.40;;;;;;;-140.79;100.00;63287.88;5061253;28;20036;-49
2022/05/05 01:32:32;;;;;;;4.97;3.00;;;;;;;-140.79;100.00;63287.88;5058497;28;20032;-49
2022/05/05 01:34:57;;;;;;;4.75;3.30;;;;;;;-140.79;100.00;63287.88;5063802;28;20048;-49
2022/05/05 01:37:22;;;;;;;4.90;3.50;;;;;;;-140.79;100.00;63287.88;5060735;28;20025;-49
2022/05/05 01:39:48;;;;;;;5.30;3.47;;;;;;;-140.79;100.00;63287.88;5062290;28;20028;-49
2022/05/05 01:42:13;;;;;;;4.75;3.28;;;;;;;-140.79;100.00;63287.88;5063765;28;20032;-50
2022/05/05 01:44:39;;;;;;;5.32;3.40;;;;;;;-140.79;100.00;63287.88;5059444;28;20059;-49
2022/05/05 01:47:04;;;;;;;4.45;3.17;;;;;;;-140.79;100.00;63287.88;5062416;28;20033;-49
2022/05/05 01:49:30;;;;;;;3.85;2.85;;;;;;;-140.79;100.00;63287.88;5063788;28;20470;-49
2022/05/05 01:51:55;;;;;;;4.65;3.30;;;;;;;-140.79;100.00;63287.88;5060867;28;20025;-48
2022/05/05 01:54:21;;;;;;;4.53;3.08;;;;;;;-140.79;100.00;63287.88;5061225;28;20090;-49
2022/05/05 01:56:46;;;;;;;5.35;3.03;;;;;;;-140.79;100.00;63287.88;5060717;28;20111;-49
2022/05/05 01:59:11;;;;;;;4.47;3.05;;;;;;;-140.79;100.00;63287.88;5045300;28;20098;-50
2022/05/05 02:01:37;;;;;;;4.22;3.25;;;;;;;-140.79;100.00;63287.88;5060835;28;20035;-49
2022/05/05 02:04:02;;;;;;;5.63;3.08;;;;;;;-140.79;100.00;63287.88;5060335;28;20032;-50
2022/05/05 02:06:28;;;;;;;4.35;3.03;;;;;;;-140.79;100.00;63287.88;5063357;28;20396;-49
2022/05/05 02:08:53;;;;;;;4.88;3.40;;;;;;;-140.79;100.00;63287.88;5062088;28;20506;-48
2022/05/05 02:11:19;;;;;;;4.20;2.83;;;;;;;-140.79;100.00;63287.88;5061669;28;20581;-50
2022/05/05 02:13:44;;;;;;;4.47;2.90;;;;;;;-140.79;100.00;63287.88;5063195;28;20483;-49
2022/05/05 02:16:10;;;;;;;4.28;3.03;;;;;;;-140.79;100.00;63287.88;5061406;28;20480;-49
2022/05/05 02:18:35;;;;;;;4.40;2.90;;;;;;;-140.79;100.00;63287.88;5057363;28;20530;-49
2022/05/05 02:21:00;;;;;;;4.63;3.15;;;;;;;-140.79;100.00;63287.88;5060904;28;20566;-49
2022/05/05 02:23:26;;;;;;;4.88;3.20;;;;;;;-140.79;100.00;63287.88;5064357;28;20020;-49
2022/05/05 02:25:53;;;;;;;3.63;2.83;;;;;;;-140.79;100.00;63287.88;5063943;28;20060;-48
2022/05/05 02:28:18;;;;;;;4.15;3.03;;;;;;;-140.79;100.00;63287.88;5063887;28;20079;-49
2022/05/05 02:30:44;;;;;;;3.60;2.90;;;;;;;-140.79;100.00;63287.88;5044449;28;20040;-52
2022/05/05 02:33:09;;;;;;;3.40;2.50;;;;;;;-140.79;100.00;63287.88;5065162;28;20020;-50
2022/05/05 02:35:35;;;;;;;4.07;3.05;;;;;;;-140.79;100.00;63287.88;5064035;28;20039;-50
2022/05/05 02:40:44;;;;;;;3.65;2.63;;;;;;;-140.79;100.00;63287.88;5064735;28;20027;-49
2022/05/05 02:43:10;;;;;;;4.65;3.00;;;;;;;-140.79;100.00;63287.88;5063245;28;20427;-49
2022/05/05 02:45:36;;;;;;;4.72;2.97;;;;;;;-140.79;100.00;63287.88;5065338;28;20020;-50
2022/05/05 02:48:01;;;;;;;4.10;2.80;;;;;;;-140.79;100.00;63287.88;5066866;28;20078;-49
2022/05/05 02:50:26;;;;;;;4.30;3.10;;;;;;;-140.79;100.00;63287.88;5046046;28;20633;-48
2022/05/05 02:52:53;;;;;;;5.30;3.25;;;;;;;-140.79;100.00;63287.88;5064019;28;20102;-50
2022/05/05 02:55:18;;;;;;;4.38;2.95;;;;;;;-140.79;100.00;63287.88;5065130;28;20168;-48
2022/05/05 02:57:44;;;;;;;4.38;2.55;;;;;;;-140.79;100.00;63287.88;5066612;28;20025;-48
2022/05/05 03:00:11;;;;;;;3.92;2.58;;;;;;;-140.79;100.00;63287.88;5065917;28;20587;-49
2022/05/05 03:02:37;;;;;;;4.05;2.70;;;;;;;-140.79;100.00;63287.88;5061803;28;20031;-48
2022/05/05 03:05:02;;;;;;;4.15;2.78;;;;;;;-140.79;100.00;63287.88;5063220;28;20486;-49
2022/05/05 03:07:28;;;;;;;4.28;2.67;;;;;;;-140.79;100.00;63287.88;5032595;28;20032;-49
2022/05/05 03:09:53;;;;;;;4.20;2.90;;;;;;;-140.79;100.00;63287.88;5043349;28;20240;-50
2022/05/05 03:12:19;;;;;;;4.25;2.80;;;;;;;-140.79;100.00;63287.88;5063825;28;20040;-50
2022/05/05 03:14:46;;;;;;;3.63;2.78;;;;;;;-140.79;100.00;63287.88;5062751;28;20025;-49
2022/05/05 03:17:12;;;;;;;3.65;2.55;;;;;;;-140.79;100.00;63287.88;5063969;28;20182;-49
2022/05/05 03:19:37;;;;;;;3.65;2.72;;;;;;;-140.79;100.00;63287.88;5065637;28;20550;-49
2022/05/05 03:22:03;;;;;;;3.88;2.72;;;;;;;-140.79;100.00;63287.88;5063814;28;20024;-50
2022/05/05 03:24:29;;;;;;;3.63;2.47;;;;;;;-140.79;100.00;63287.88;5064939;28;20023;-49
2022/05/05 03:26:54;;;;;;;4.75;2.78;;;;;;;-140.79;100.00;63287.88;5057428;28;20045;-49
2022/05/05 03:29:20;;;;;;;3.30;2.40;;;;;;;-140.79;100.00;63287.88;5042582;28;20090;-49
2022/05/05 03:31:45;;;;;;;4.13;2.90;;;;;;;-140.79;100.00;63287.88;5043176;28;20020;-50
2022/05/05 03:34:10;;;;;;;3.47;2.40;;;;;;;-140.79;100.00;63287.88;5044995;28;20029;-49
2022/05/05 03:36:36;;;;;;;3.50;2.60;;;;;;;-140.79;100.00;63287.88;5041128;28;20021;-51
2022/05/05 03:39:02;;;;;;;5.18;2.95;;;;;;;-140.79;100.00;63287.88;5044896;28;20050;-50
2022/05/05 03:41:27;;;;;;;3.90;2.72;;;;;;;-140.79;100.00;63287.88;5027383;28;20029;-49
2022/05/05 03:43:54;;;;;;;3.90;2.60;;;;;;;-140.79;100.00;63287.88;5045192;28;20041;-50
2022/05/05 03:46:19;;;;;;;4.45;2.65;;;;;;;-140.79;100.00;63287.88;5044793;28;20064;-50
2022/05/05 03:48:45;;;;;;;3.45;2.55;;;;;;;-140.79;100.00;63287.88;5041062;28;20012;-50
2022/05/05 03:51:10;;;;;;;4.43;3.05;;;;;;;-140.79;100.00;63287.88;5038473;28;20111;-50
2022/05/05 03:53:36;;;;;;;4.35;2.70;;;;;;;-140.79;100.00;63287.88;5044217;28;20029;-50
2022/05/05 03:56:02;;;;;;;3.92;2.60;;;;;;;-140.79;100.00;63287.88;5039813;28;20021;-49
2022/05/05 03:58:27;;;;;;;3.28;2.67;;;;;;;-140.79;100.00;63287.88;5034041;28;20037;-49
2022/05/05 04:00:53;;;;;;;3.60;2.50;;;;;;;-140.79;100.00;63287.88;5027053;28;20089;-49
2022/05/05 04:03:30;;;;;;;3.88;2.70;;;;;;;-140.79;100.00;63287.88;5042239;28;20032;-50
2022/05/05 04:05:58;;;;;;;3.85;2.55;;;;;;;-140.79;100.00;63287.88;5037732;28;20032;-50
2022/05/05 04:08:25;;;;;;;4.90;2.70;;;;;;;-140.79;100.00;63287.88;5040209;28;20469;-49
2022/05/05 04:10:50;;;;;;;3.83;2.35;;;;;;;-140.79;100.00;63287.88;5043309;28;20074;-50
2022/05/05 04:13:16;;;;;;;3.85;2.88;;;;;;;-140.79;100.00;63287.88;5042267;28;20044;-51
2022/05/05 04:15:41;;;;;;;3.72;2.67;;;;;;;-140.79;100.00;63287.88;5043143;28;20097;-51
2022/05/05 04:18:07;;;;;;;4.43;2.78;;;;;;;-140.79;100.00;63287.88;5043712;28;20493;-50
2022/05/05 04:20:33;;;;;;;4.00;2.70;;;;;;;-140.79;100.00;63287.88;5042788;28;21452;-50
2022/05/05 04:22:58;;;;;;;4.40;2.50;;;;;;;-140.79;100.00;63287.88;5040065;28;20082;-49
2022/05/05 04:25:24;;;;;;;3.20;2.58;;;;;;;-140.79;100.00;63287.88;5041625;28;20396;-50
2022/05/05 04:27:49;;;;;;;3.92;2.70;;;;;;;-140.79;100.00;63287.88;5063853;28;20498;-49
2022/05/05 04:30:16;;;;;;;3.40;2.35;;;;;;;-140.79;100.00;63287.88;5061949;28;20024;-50
2022/05/05 04:32:42;;;;;;;3.45;2.42;;;;;;;-140.79;100.00;63287.88;5060122;28;20841;-50
2022/05/05 04:35:08;;;;;;;3.47;2.35;;;;;;;-140.79;100.00;63287.88;5061618;28;20024;-49
2022/05/05 04:37:33;;;;;;;3.40;2.28;;;;;;;-140.79;100.00;63287.88;5061741;28;20028;-51
2022/05/05 04:39:58;;;;;;;4.38;2.50;;;;;;;-140.79;100.00;63287.88;5060044;28;20024;-49
2022/05/05 04:42:25;;;;;;;3.05;2.35;;;;;;;-140.79;100.00;63287.88;5063223;28;20017;-49
2022/05/05 04:44:51;;;;;;;3.28;2.33;;;;;;;-140.79;100.00;63287.88;5059906;28;20036;-50
2022/05/05 04:47:17;;;;;;;3.70;2.47;;;;;;;-140.79;100.00;63287.88;5043247;28;20032;-49
2022/05/05 04:49:42;;;;;;;3.75;2.42;;;;;;;-140.79;100.00;63287.88;5063104;28;20021;-49
2022/05/05 04:52:07;;;;;;;3.05;2.10;;;;;;;-140.79;100.00;63287.88;5060596;28;20496;-50
2022/05/05 04:54:33;;;;;;;3.58;2.50;;;;;;;-140.79;100.00;63287.88;5040960;28;20032;-49
2022/05/05 04:56:58;;;;;;;3.17;2.50;;;;;;;-140.79;100.00;63287.88;5061131;28;20399;-50
2022/05/05 04:59:24;;;;;;;3.83;2.53;;;;;;;-140.79;100.00;63287.88;5058197;28;20579;-49
2022/05/05 05:01:49;;;;;;;3.15;2.40;;;;;;;-140.79;100.00;63287.88;5058578;28;20571;-49
2022/05/05 05:04:15;;;;;;;4.15;2.63;;;;;;;-140.79;100.00;63287.88;5055215;28;20503;-49
2022/05/05 05:06:40;;;;;;;3.90;2.47;;;;;;;-140.79;100.00;63287.88;5058145;28;20028;-49
2022/05/05 05:09:05;;;;;;;3.35;2.28;;;;;;;-140.79;100.00;63287.88;5061910;28;20480;-49
2022/05/05 05:11:31;;;;;;;3.83;2.70;;;;;;;-140.79;100.00;63287.88;5053689;28;20205;-49
2022/05/05 05:13:56;;;;;;;3.17;2.42;;;;;;;-140.79;100.00;63287.88;5058859;28;20068;-52
2022/05/05 05:16:22;;;;;;;4.03;2.47;;;;;;;-140.79;100.00;63287.88;5062145;28;20023;-49
2022/05/05 05:18:47;;;;;;;3.55;2.30;;;;;;;-140.79;100.00;63287.88;5061131;28;20051;-49
2022/05/05 05:21:12;;;;;;;4.82;2.40;;;;;;;-140.79;100.00;63287.88;5061821;28;20017;-48
2022/05/05 05:23:38;;;;;;;3.40;2.55;;;;;;;-140.79;100.00;63287.88;5060732;28;20056;-48
2022/05/05 05:26:03;;;;;;;3.65;2.60;;;;;;;-140.79;100.00;63287.88;5057676;28;20036;-49
2022/05/05 05:28:29;;;;;;;3.08;2.28;;;;;;;-140.79;100.00;63287.88;5059932;28;20393;-48
2022/05/05 05:30:54;;;;;;;3.38;2.45;;;;;;;-140.79;100.00;63287.88;5061286;28;20032;-49
2022/05/05 05:33:20;;;;;;;4.35;2.85;;;;;;;-140.79;100.00;63287.88;5060398;28;20542;-47
2022/05/05 05:35:45;;;;;;;3.50;2.47;;;;;;;-140.79;100.00;63287.88;5060160;28;20024;-47
2022/05/05 05:38:11;;;;;;;3.05;2.38;;;;;;;-140.79;100.00;63287.88;5061944;28;20021;-47
2022/05/05 05:40:37;;;;;;;3.33;2.50;;;;;;;-140.79;100.00;63287.88;5040510;28;20059;-47
2022/05/05 05:43:03;;;;;;;4.35;2.72;;;;;;;-140.79;100.00;63287.88;5058879;28;20082;-50
2022/05/05 05:45:28;;;;;;;4.38;2.58;;;;;;;-140.79;100.00;63287.88;5061271;28;20044;-50
2022/05/05 05:47:54;;;;;;;4.07;2.90;;;;;;;-140.79;100.00;63287.88;5041757;28;20021;-50
2022/05/05 05:50:19;;;;;;;4.22;3.10;;;;;;;-140.79;100.00;63287.88;5061212;28;20048;-50
2022/05/05 05:52:45;;;;;;;4.38;2.90;;;;;;;-140.79;100.00;63287.88;5061027;28;20115;-50
2022/05/05 05:55:11;;;;;;;3.88;3.25;;;;;;;-140.79;100.00;63287.88;5063506;28;20392;-48
2022/05/05 05:57:36;;;;;;;5.07;3.50;;;;;;;-140.79;100.00;63287.88;5060926;28;20032;-48
2022/05/05 06:00:02;;;;;;;4.93;2.95;;;;;;;-140.79;100.00;63287.88;5061812;28;20031;-49
2022/05/05 06:05:11;;;;;;;4.38;2.95;;;;;;;-140.79;100.00;63287.88;5059916;28;20125;-49
2022/05/05 06:07:37;;;;;;;4.88;2.72;;;;;;;-140.79;100.00;63287.88;5061536;28;20032;-47
2022/05/05 06:10:03;;;;;;;4.68;3.17;;;;;;;-140.79;100.00;63287.88;5041813;28;20530;-46
2022/05/05 06:12:30;;;;;;;4.38;3.05;;;;;;;-140.79;100.00;63287.88;5056313;28;20036;-47
2022/05/05 06:14:55;;;;;;;4.40;3.08;;;;;;;-140.79;100.00;63287.88;5060242;28;20020;-49
2022/05/05 06:17:20;;;;;;;4.10;3.10;;;;;;;-140.79;100.00;63287.88;5058756;28;20032;-48
2022/05/05 06:19:46;;;;;;;5.32;3.30;;;;;;;-140.79;100.00;63287.88;5059852;28;20495;-48
2022/05/05 06:22:11;;;;;;;5.07;3.45;;;;;;;-140.79;100.00;63287.88;5062451;28;20451;-49
2022/05/05 06:24:37;;;;;;;5.70;3.33;;;;;;;-140.79;100.00;63287.88;5062500;28;20488;-49
2022/05/05 06:27:02;;;;;;;5.18;3.55;;;;;;;-140.79;100.00;63287.88;5061089;28;20072;-48
2022/05/05 06:29:30;;;;;;;5.22;3.55;;;;;;;-140.79;100.00;63287.88;5060068;28;20029;-48
2022/05/05 06:31:55;;;;;;;4.40;3.20;;;;;;;-140.79;100.00;63287.88;5061733;28;20021;-49
2022/05/05 06:34:21;;;;;;;4.53;3.47;;;;;;;-140.79;100.00;63287.88;5060831;28;20032;-48
2022/05/05 06:36:46;;;;;;;6.15;3.60;;;;;;;-140.79;100.00;63287.88;5060870;28;20063;-48
2022/05/05 06:39:11;;;;;;;6.32;4.05;;;;;;;-140.79;100.00;63287.88;5060375;28;20055;-48
2022/05/05 06:41:37;;;;;;;5.10;3.90;;;;;;;-140.79;100.00;63287.88;5060101;28;20047;-47
2022/05/05 06:44:02;;;;;;;5.90;4.00;;;;;;;-140.79;100.00;63287.88;5062668;28;20476;-48
2022/05/05 06:46:29;;;;;;;6.22;4.15;;;;;;;-140.79;100.00;63287.88;5055295;28;20103;-47
2022/05/05 06:48:54;;;;;;;5.80;3.60;;;;;;;-140.79;100.00;63287.88;5060122;28;20021;-50
2022/05/05 06:51:20;;;;;;;6.22;4.20;;;;;;;-140.79;100.00;63287.88;5063071;28;20394;-50
2022/05/05 06:53:45;;;;;;;5.93;4.10;;;;;;;-140.79;100.00;63287.88;5059125;28;20020;-48
2022/05/05 06:56:11;;;;;;;7.35;3.90;;;;;;;-140.79;100.00;63287.88;5060824;28;20029;-48
2022/05/05 06:58:36;;;;;;;7.63;4.70;;;;;;;-140.79;100.00;63287.88;5057179;28;20036;-48
2022/05/05 07:03:45;;;;;;;6.75;4.30;;;;;;;-140.79;100.00;63287.88;5059413;28;20141;-48
2022/05/05 07:06:11;;;;;;;8.27;4.30;;;;;;;-140.79;100.00;63287.88;5058100;28;20110;-48
2022/05/05 07:11:23;;;;;;;8.43;4.75;;;;;;;-140.79;100.00;63287.88;5062983;28;20043;-47
2022/05/05 07:13:49;;;;;;;6.57;4.43;;;;;;;-140.79;100.00;63287.88;5063842;28;20028;-47
2022/05/05 07:16:14;;;;;;;5.75;4.35;;;;;;;-140.79;100.00;63287.88;5062564;28;20533;-47
2022/05/05 07:18:39;;;;;;;6.57;4.60;;;;;;;-140.79;100.00;63287.88;5063981;28;20531;-48
2022/05/05 07:21:05;;;;;;;8.15;4.80;;;;;;;-140.79;100.00;63287.88;5061769;28;20029;-48
2022/05/05 07:23:31;;;;;;;7.43;4.55;;;;;;;-140.79;100.00;63287.88;5062912;28;20043;-46
2022/05/05 07:25:56;;;;;;;7.93;4.55;;;;;;;-140.79;100.00;63287.88;5059715;28;20045;-46
2022/05/05 07:28:21;;;;;;;6.82;4.38;;;;;;;-140.79;100.00;63287.88;5059268;28;20028;-46
2022/05/05 07:30:47;;;;;;;7.00;4.50;;;;;;;-140.79;100.00;63287.88;5060539;28;20009;-47
2022/05/05 07:33:12;;;;;;;7.15;5.03;;;;;;;-140.79;100.00;63287.88;5066088;28;20032;-47
2022/05/05 07:35:38;;;;;;;6.40;4.85;;;;;;;-140.79;100.00;63287.88;5066360;28;20025;-48
2022/05/05 07:38:05;;;;;;;7.70;4.78;;;;;;;-140.79;100.00;63287.88;5063330;28;20025;-46
2022/05/05 07:40:30;;;;;;;7.03;5.00;;;;;;;-140.79;100.00;63287.88;5062528;28;20407;-47
2022/05/05 07:42:55;;;;;;;7.03;4.97;;;;;;;-140.79;100.00;63287.88;5065307;28;20400;-47
2022/05/05 07:45:21;;;;;;;9.23;5.65;;;;;;;-140.79;100.00;63287.88;5059077;28;20479;-47
2022/05/05 07:47:46;;;;;;;7.85;5.47;;;;;;;-140.79;100.00;63287.88;5063513;28;20071;-47
2022/05/05 07:50:12;;;;;;;9.18;5.00;;;;;;;-140.79;100.00;63287.88;5064780;28;20676;-48
2022/05/05 07:52:37;;;;;;;7.95;5.13;;;;;;;-140.79;100.00;63287.88;5065418;28;20093;-48
2022/05/05 07:55:03;;;;;;;8.00;5.40;;;;;;;-140.79;100.00;63287.88;5063244;28;20565;-46
2022/05/05 07:57:29;;;;;;;7.05;4.93;;;;;;;-140.79;100.00;63287.88;5063088;28;20032;-47
2022/05/05 07:59:54;;;;;;;8.00;5.10;;;;;;;-140.79;100.00;63287.88;5062385;28;20031;-48
2022/05/05 08:02:19;;;;;;;8.13;5.47;;;;;;;-140.79;100.00;63287.88;5063408;28;20036;-48
2022/05/05 08:04:45;;;;;;;7.70;5.40;;;;;;;-140.79;100.00;63287.88;5063791;28;20028;-48
2022/05/05 08:07:11;;;;;;;7.35;4.95;;;;;;;-140.79;100.00;63287.88;5065434;28;20036;-49
2022/05/05 08:09:36;;;;;;;6.63;4.72;;;;;;;-140.79;100.00;63287.88;5062066;28;20044;-47
2022/05/05 08:12:03;;;;;;;7.65;4.90;;;;;;;-140.79;100.00;63287.88;5063588;28;20558;-48
2022/05/05 08:14:29;;;;;;;8.70;5.15;;;;;;;-140.79;100.00;63287.88;5046147;28;20025;-48
2022/05/05 08:16:55;;;;;;;8.13;5.05;;;;;;;-140.79;100.00;63287.88;5062011;28;20066;-47
2022/05/05 08:19:21;;;;;;;8.10;5.30;;;;;;;-140.79;100.00;63287.88;5062250;28;20413;-49
2022/05/05 08:21:47;;;;;;;6.53;4.70;;;;;;;-140.79;100.00;63287.88;5061588;28;20036;-46
2022/05/05 08:29:41;;;;;;;6.10;4.63;;;;;;;-140.79;100.00;63287.88;5061592;28;20126;-48
2022/05/05 08:32:07;;;;;;;6.65;4.93;;;;;;;-140.79;100.00;63287.88;5025193;28;20028;-48
2022/05/05 08:34:32;;;;;;;7.30;4.90;;;;;;;-140.79;100.00;63287.88;5063386;28;20028;-47
2022/05/05 08:36:58;;;;;;;7.35;5.28;;;;;;;-140.79;100.00;63287.88;5061226;28;20047;-46
2022/05/05 08:39:23;;;;;;;7.15;5.05;;;;;;;-140.79;100.00;63287.88;5062622;28;20039;-47
2022/05/05 08:41:48;;;;;;;7.18;5.03;;;;;;;-140.79;100.00;63287.88;5063503;28;20040;-47
2022/05/05 08:44:14;;;;;;;7.38;5.70;;;;;;;-140.79;100.00;63287.88;5064758;28;20051;-47
2022/05/05 08:46:40;;;;;;;8.00;5.38;;;;;;;-140.79;100.00;63287.88;5064202;28;20031;-46
2022/05/05 08:49:06;;;;;;;9.50;5.30;;;;;;;-140.79;100.00;63287.88;5045457;28;20487;-50
2022/05/05 08:51:45;;;;;;;7.45;5.20;;;;;;;-140.79;100.00;63287.88;5062632;28;20103;-47
2022/05/05 08:54:16;;;;;;;8.68;5.45;;;;;;;-140.79;100.00;63287.88;5046182;28;20032;-46
2022/05/05 08:56:41;;;;;;;6.88;5.43;;;;;;;-140.79;100.00;63287.88;5064447;28;20047;-47
2022/05/05 08:59:08;;;;;;;7.28;4.75;;;;;;;-140.79;100.00;63287.88;5061516;28;20024;-46
2022/05/05 09:01:38;;;;;;;8.13;5.20;;;;;;;-140.79;100.00;63287.88;5063247;28;20031;-48
2022/05/05 09:04:05;;;;;;;7.18;5.38;;;;;;;-140.79;100.00;63287.88;5059925;28;20032;-48
2022/05/05 09:06:43;;;;;;;6.97;4.97;;;;;;;-140.79;100.00;63287.88;5061314;28;20028;-47
2022/05/05 09:09:24;;;;;;;6.78;4.75;;;;;;;-140.79;100.00;63287.88;5063117;28;20426;-48
2022/05/05 09:12:14;;;;;;;5.82;5.03;;;;;;;-140.79;100.00;63287.88;5064140;28;20048;-47
2022/05/05 09:14:43;;;;;;;7.20;4.85;;;;;;;-140.79;100.00;63287.88;5061035;28;20048;-48
2022/05/05 09:17:13;;;;;;;5.97;4.70;;;;;;;-140.79;100.00;63287.88;5062575;28;20500;-49
2022/05/05 09:19:40;;;;;;;7.78;5.03;;;;;;;-140.79;100.00;63287.88;5062881;28;20023;-48
2022/05/05 09:22:05;;;;;;;6.55;4.25;;;;;;;-140.79;100.00;63287.88;5060672;28;20032;-47
2022/05/05 09:24:40;;;;;;;7.10;5.03;;;;;;;-140.79;100.00;63287.88;5061830;28;20404;-47
2022/05/05 09:27:24;;;;;;;6.68;4.68;;;;;;;-140.79;100.00;63287.88;5063750;28;20113;-46
2022/05/05 09:30:03;;;;;;;6.45;4.95;;;;;;;-140.79;100.00;63287.88;5061913;28;20036;-46
2022/05/05 09:32:37;;;;;;;6.23;4.83;;;;;;;-140.79;100.00;63287.88;5044249;28;20027;-47
2022/05/05 09:35:04;;;;;;;6.75;4.57;;;;;;;-140.79;100.00;63287.88;5059862;28;20029;-47
2022/05/05 09:37:30;;;;;;;7.07;4.63;;;;;;;-140.79;100.00;63287.88;5059890;28;20045;-47
2022/05/05 09:39:59;;;;;;;7.35;4.70;;;;;;;-140.79;100.00;63287.88;5058452;28;20027;-48
2022/05/05 09:42:37;;;;;;;6.30;4.80;;;;;;;-140.79;100.00;63287.88;5060030;28;20017;-47
2022/05/05 09:45:17;;;;;;;6.90;4.82;;;;;;;-140.79;100.00;63287.88;5063873;28;20097;-48
2022/05/05 09:47:47;;;;;;;6.60;4.72;;;;;;;-140.79;100.00;63287.88;5063032;28;20033;-47
2022/05/05 09:50:13;;;;;;;6.95;4.82;;;;;;;-140.79;100.00;63287.88;5062682;28;20051;-46
2022/05/05 09:58:12;;;;;;;6.53;4.95;;;;;;;-140.79;100.00;63287.88;5062427;28;20043;-47
2022/05/05 10:00:44;;;;;;;6.30;4.72;;;;;;;-140.79;100.00;63287.88;5059976;28;20024;-47
2022/05/05 10:06:00;;;;;;;;;;;;;;;-140.79;100.00;63287.88;5045509;28;20027;-48
2022/05/05 10:08:42;;;;;;;6.70;4.85;;;;;;;-140.79;100.00;63287.88;5045166;28;19912;-48
2022/05/05 10:11:08;;;;;;;6.15;4.72;;;;;;;-140.79;100.00;63287.88;5062207;28;20567;-48
2022/05/05 10:13:37;;;;;;;7.30;4.60;;;;;;;-140.79;100.00;63287.88;5060112;28;20044;-47
2022/05/05 10:16:06;;;;;;;6.43;4.10;;;;;;;-140.79;100.00;63287.88;5060117;28;20020;-47
2022/05/05 10:18:33;;;;;;;5.63;3.90;;;;;;;-140.79;100.00;63287.88;5063703;28;20032;-47
2022/05/05 10:20:58;;;;;;;5.30;4.00;;;;;;;-140.79;100.00;63287.88;5060609;28;20439;-47
2022/05/05 10:23:55;;;;;;;6.28;4.40;;;;;;;-140.79;100.00;63287.88;5060142;28;20036;-47
2022/05/05 10:26:21;;;;;;;6.28;4.70;;;;;;;-140.79;100.00;63287.88;5038083;28;20087;-49
2022/05/05 10:28:50;;;;;;;6.05;4.25;;;;;;;-140.79;100.00;63287.88;5055188;28;20033;-46
2022/05/05 10:31:30;;;;;;;5.50;4.13;;;;;;;-140.79;100.00;63287.88;5058195;28;20809;-46
2022/05/05 10:34:02;;;;;;;6.63;4.68;;;;;;;-140.79;100.00;63287.88;5061755;28;20029;-47
2022/05/05 10:36:28;;;;;;;6.15;3.85;;;;;;;-140.79;100.00;63287.88;5057811;28;20139;-49
2022/05/05 10:38:53;;;;;;;6.00;4.07;;;;;;;-140.79;100.00;63287.88;5062605;28;20016;-48
2022/05/05 10:41:33;;;;;;;6.40;4.50;;;;;;;-140.79;100.00;63287.88;5061810;28;20464;-48
2022/05/05 10:44:19;;;;;;;5.32;4.30;;;;;;;-140.79;100.00;63287.88;5063580;28;20081;-47
2022/05/05 10:47:04;;;;;;;5.32;4.07;;;;;;;-140.79;100.00;63287.88;5062550;28;20024;-47
2022/05/05 10:52:09;;;;;;;7.32;5.13;;;;;;;-140.79;100.00;63287.88;5064439;28;20405;-46
2022/05/05 10:54:35;;;;;;;10.65;4.53;;;;;;;-140.79;100.00;63287.88;5064401;28;20050;-47
2022/05/05 10:57:26;;;;;;;8.63;4.03;;;;;;;-140.79;100.00;63287.88;5065825;28;20099;-47
2022/05/05 11:00:19;;;;;;;7.93;3.90;;;;;;;-140.79;100.00;63287.88;5063526;28;20036;-46
2022/05/05 11:02:56;;;;;;;6.60;3.45;;;;;;;-140.79;100.00;63287.88;5057229;28;20029;-47
2022/05/05 11:05:28;;;;;;;4.97;3.25;;;;;;;-140.79;100.00;63287.88;5060183;28;20036;-47
2022/05/05 11:07:54;;;;;;;6.18;2.65;;;;;;;-140.79;100.00;63287.88;5063248;28;20020;-47
2022/05/05 11:10:47;;;;;;;4.43;2.80;;;;;;;-140.79;100.00;63287.88;5064910;28;20559;-46
2022/05/05 11:13:38;;;;;;;3.80;2.83;;;;;;;-140.79;100.00;63287.88;5056111;28;20059;-47
2022/05/05 11:22:15;;;;;;;6.10;2.67;;;;;;;-140.79;100.00;63287.88;5060555;28;20086;-48
2022/05/05 11:24:44;;;;;;;3.38;2.47;;;;;;;-140.79;100.00;63287.88;5043846;28;20507;-48
2022/05/05 11:27:17;;;;;;;4.07;2.05;;;;;;;-140.79;100.00;63287.88;5062121;28;20110;-47
2022/05/05 11:29:49;;;;;;;3.50;2.15;;;;;;;-140.79;100.00;63287.88;5060048;28;20040;-47
2022/05/05 11:32:15;;;;;;;5.07;2.60;;;;;;;-140.79;100.00;63287.88;5060676;28;20048;-47
2022/05/05 11:34:41;;;;;;;6.05;2.80;;;;;;;-140.79;100.00;63287.88;5066101;28;20681;-48
2022/05/05 11:37:08;;;;;;;3.80;2.88;;;;;;;-140.79;100.00;63287.88;5061742;28;20059;-49
2022/05/05 11:39:34;;;;;;;4.50;2.70;;;;;;;-140.79;100.00;63287.88;5043958;28;20035;-48
2022/05/05 11:42:04;;;;;;;3.75;2.40;;;;;;;-140.79;100.00;63287.88;5061687;28;20078;-47
2022/05/05 11:44:29;;;;;;;;;;;;;;;-140.79;100.00;63287.88;5061643;28;20083;-47
2022/05/05 11:46:57;;;;;;;3.38;2.20;;;;;;;-140.79;100.00;63287.88;5058491;28;19920;-47
2022/05/05 11:49:24;;;;;;;2.28;1.60;;;;;;;-140.79;100.00;63287.88;5060355;28;20040;-48
2022/05/05 11:51:49;;;;;;;2.92;1.88;;;;;;;-140.79;100.00;63287.88;5048019;28;20037;-48
2022/05/05 11:54:17;;;;;;;3.88;2.40;;;;;;;-140.79;100.00;63287.88;5062628;28;20031;-47